| time (UTC) | temp C | wind direction | speed KPH | gust KPH | rain 1hr cm | rain 24hr cm | rain mn cm | humidity % | barometer mb |
| 20260906090027 | 21 | 20 | 1.6 | 6.4 | 0.00 | 0.00 | 0.00 | 88 | 1016.8 |
| 20260906085525 | 21 | 49 | 0.0 | 4.8 | 0.00 | 0.00 | 0.00 | 88 | 1016.8 |
| 20260906085033 | 21 | 52 | 1.6 | 9.7 | 0.00 | 0.00 | 0.00 | 88 | 1016.8 |
| 20260906084529 | 21 | 27 | 3.2 | 9.7 | 0.00 | 0.00 | 0.00 | 88 | 1016.8 |
| 20260906084018 | 21 | 33 | 1.6 | 6.4 | 0.00 | 0.00 | 0.00 | 88 | 1016.8 |
| 20260906083535 | 21 | 18 | 1.6 | 6.4 | 0.00 | 0.00 | 0.00 | 88 | 1016.8 |
| 20260906083023 | 21 | 35 | 1.6 | 6.4 | 0.00 | 0.00 | 0.00 | 88 | 1016.7 |
| 20260906082540 | 21 | 49 | 3.2 | 9.7 | 0.00 | 0.00 | 0.00 | 89 | 1016.7 |
| 20260906082029 | 21 | 38 | 1.6 | 6.4 | 0.00 | 0.00 | 0.00 | 89 | 1016.7 |
| 20260906081527 | 21 | 350 | 3.2 | 6.4 | 0.00 | 0.00 | 0.00 | 89 | 1016.7 |
| 20260906081016 | 21 | 30 | 3.2 | 6.4 | 0.00 | 0.00 | 0.00 | 89 | 1016.8 |
| 20260906080533 | 21 | 31 | 1.6 | 4.8 | 0.00 | 0.00 | 0.00 | 88 | 1016.7 |
| 20260906080017 | 21 | 28 | 1.6 | 4.8 | 0.00 | 0.00 | 0.00 | 88 | 1016.8 |
| 20260906075515 | 21 | 41 | 1.6 | 4.8 | 0.00 | 0.00 | 0.00 | 88 | 1016.7 |
| 20260906075017 | 21 | 1 | 1.6 | 6.4 | 0.00 | 0.00 | 0.00 | 88 | 1016.5 |
| 20260906074533 | 21 | 30 | 1.6 | 6.4 | 0.00 | 0.00 | 0.00 | 88 | 1016.6 |
| 20260906074022 | 21 | 56 | 3.2 | 6.4 | 0.00 | 0.00 | 0.00 | 87 | 1016.6 |
| 20260906073519 | 21 | 23 | 1.6 | 9.7 | 0.00 | 0.00 | 0.00 | 88 | 1016.6 |
| 20260906073037 | 21 | 29 | 3.2 | 9.7 | 0.00 | 0.00 | 0.00 | 88 | 1016.5 |
| 20260906072526 | 21 | 17 | 1.6 | 6.4 | 0.00 | 0.00 | 0.00 | 88 | 1016.4 |
| 20260906072043 | 21 | 39 | 1.6 | 12.9 | 0.00 | 0.00 | 0.00 | 88 | 1016.4 |
| 20260906071530 | 21 | 90 | 3.2 | 12.9 | 0.00 | 0.00 | 0.00 | 88 | 1016.5 |
| 20260906071017 | 22 | 70 | 3.2 | 9.7 | 0.00 | 0.00 | 0.00 | 88 | 1016.4 |
| 20260906070534 | 22 | 49 | 1.6 | 8.0 | 0.00 | 0.00 | 0.00 | 88 | 1016.4 |
| 20260906070026 | 22 | 37 | 1.6 | 8.0 | 0.00 | 0.00 | 0.00 | 89 | 1016.4 |
| 20260906065515 | 22 | 8 | 1.6 | 4.8 | 0.00 | 0.00 | 0.00 | 89 | 1016.6 |
| 20260906065034 | 22 | 43 | 1.6 | 4.8 | 0.00 | 0.00 | 0.00 | 89 | 1016.5 |
| 20260906064521 | 22 | 10 | 3.2 | 8.0 | 0.00 | 0.00 | 0.00 | 89 | 1016.4 |
| 20260906064017 | 22 | 51 | 1.6 | 4.8 | 0.00 | 0.00 | 0.00 | 89 | 1016.4 |
| 20260906063526 | 22 | 42 | 1.6 | 4.8 | 0.00 | 0.00 | 0.00 | 89 | 1016.5 |
| 20260906063023 | 22 | 46 | 1.6 | 4.8 | 0.00 | 0.00 | 0.00 | 89 | 1016.5 |
| 20260906062531 | 22 | 89 | 1.6 | 4.8 | 0.00 | 0.00 | 0.00 | 90 | 1016.5 |
| 20260906062029 | 22 | 22 | 1.6 | 4.8 | 0.00 | 0.00 | 0.00 | 90 | 1016.4 |
| 20260906061518 | 22 | 49 | 0.0 | 6.4 | 0.00 | 0.00 | 0.00 | 90 | 1016.3 |
| 20260906061015 | 22 | 51 | 1.6 | 8.0 | 0.00 | 0.00 | 0.00 | 90 | 1016.3 |
| 20260906060524 | 22 | 99 | 1.6 | 9.7 | 0.00 | 0.00 | 0.00 | 90 | 1016.2 |
| 20260906060014 | 22 | 82 | 3.2 | 9.7 | 0.00 | 0.00 | 0.00 | 90 | 1016.3 |
| 20260906055531 | 22 | 38 | 1.6 | 9.7 | 0.00 | 0.00 | 0.00 | 90 | 1016.2 |
| 20260906055019 | 22 | 45 | 4.8 | 9.7 | 0.00 | 0.00 | 0.00 | 90 | 1016.1 |
| 20260906054536 | 22 | 72 | 3.2 | 9.7 | 0.00 | 0.00 | 0.00 | 90 | 1016.1 |
| 20260906054025 | 22 | 76 | 1.6 | 4.8 | 0.00 | 0.00 | 0.00 | 90 | 1016.1 |
| 20260906053542 | 22 | 43 | 1.6 | 6.4 | 0.00 | 0.00 | 0.00 | 90 | 1016.2 |
| 20260906053032 | 22 | 69 | 1.6 | 8.0 | 0.00 | 0.00 | 0.00 | 90 | 1016.1 |
| 20260906052528 | 23 | 28 | 1.6 | 8.0 | 0.00 | 0.00 | 0.00 | 89 | 1016.0 |
| 20260906052017 | 23 | 31 | 1.6 | 6.4 | 0.00 | 0.00 | 0.00 | 89 | 1016.0 |
| 20260906051534 | 23 | 57 | 3.2 | 6.4 | 0.00 | 0.00 | 0.00 | 89 | 1016.0 |
| 20260906051022 | 23 | 64 | 1.6 | 6.4 | 0.00 | 0.00 | 0.00 | 89 | 1016.0 |
| 20260906050536 | 23 | 23 | 0.0 | 4.8 | 0.00 | 0.00 | 0.00 | 89 | 1016.1 |
| 20260906050017 | 23 | 204 | 1.6 | 4.8 | 0.00 | 0.00 | 0.00 | 89 | 1015.8 |
| 20260906045515 | 23 | 9 | 1.6 | 4.8 | 0.00 | 0.00 | 0.00 | 89 | 1015.8 |
| 20260906045024 | 23 | 22 | 0.0 | 4.8 | 0.00 | 0.00 | 0.00 | 89 | 1015.9 |
| 20260906044520 | 23 | 23 | 1.6 | 4.8 | 0.00 | 0.00 | 0.00 | 89 | 1015.7 |
| 20260906044038 | 23 | 52 | 1.6 | 4.8 | 0.00 | 0.00 | 0.00 | 89 | 1015.7 |
| 20260906043527 | 23 | 8 | 0.0 | 4.8 | 0.00 | 0.00 | 0.00 | 89 | 1015.7 |
| 20260906043015 | 23 | 3 | 0.0 | 6.4 | 0.00 | 0.00 | 0.00 | 89 | 1015.6 |
| 20260906042532 | 23 | 59 | 1.6 | 6.4 | 0.00 | 0.00 | 0.00 | 89 | 1015.6 |
| 20260906042021 | 23 | 112 | 1.6 | 6.4 | 0.00 | 0.00 | 0.00 | 89 | 1015.7 |
| 20260906041517 | 23 | 26 | 1.6 | 4.8 | 0.00 | 0.00 | 0.00 | 89 | 1015.6 |
| 20260906041025 | 23 | 36 | 1.6 | 11.3 | 0.00 | 0.00 | 0.00 | 88 | 1015.7 |
| 20260906040522 | 23 | 347 | 1.6 | 11.3 | 0.00 | 0.00 | 0.00 | 89 | 1015.6 |
| 20260906040030 | 23 | 358 | 3.2 | 9.7 | 0.00 | 0.00 | 0.00 | 88 | 1015.7 |
| 20260906035518 | 23 | 8 | 1.6 | 11.3 | 0.00 | 0.00 | 0.00 | 88 | 1015.6 |
| 20260906035016 | 23 | 349 | 4.8 | 11.3 | 0.00 | 0.00 | 0.00 | 88 | 1015.6 |
| 20260906034524 | 23 | 7 | 1.6 | 9.7 | 0.00 | 0.00 | 0.00 | 88 | 1015.8 |
| 20260906034021 | 23 | 9 | 3.2 | 14.5 | 0.00 | 0.00 | 0.00 | 88 | 1015.9 |
| 20260906033530 | 23 | 7 | 4.8 | 16.1 | 0.00 | 0.00 | 0.00 | 87 | 1015.9 |
| 20260906033026 | 23 | 3 | 3.2 | 11.3 | 0.00 | 0.00 | 0.00 | 87 | 1015.8 |
| 20260906032514 | 23 | 10 | 3.2 | 19.3 | 0.00 | 0.00 | 0.00 | 87 | 1015.6 |
| 20260906032031 | 23 | 351 | 6.4 | 19.3 | 0.00 | 0.00 | 0.00 | 87 | 1015.7 |
| 20260906031520 | 23 | 357 | 9.7 | 17.7 | 0.00 | 0.00 | 0.00 | 86 | 1015.8 |
| 20260906031018 | 23 | 18 | 4.8 | 17.7 | 0.00 | 0.00 | 0.00 | 86 | 1015.6 |
| 20260906030525 | 23 | 53 | 4.8 | 16.1 | 0.00 | 0.00 | 0.00 | 86 | 1015.6 |
| 20260906030017 | 23 | 353 | 6.4 | 16.1 | 0.00 | 0.00 | 0.00 | 86 | 1015.6 |
| 20260906025534 | 23 | 16 | 6.4 | 16.1 | 0.00 | 0.00 | 0.00 | 86 | 1015.5 |
| 20260906025022 | 23 | 7 | 6.4 | 19.3 | 0.00 | 0.00 | 0.00 | 86 | 1015.5 |
| 20260906024538 | 23 | 28 | 6.4 | 20.9 | 0.00 | 0.00 | 0.00 | 86 | 1015.6 |
| 20260906024025 | 23 | 346 | 12.9 | 25.7 | 0.00 | 0.00 | 0.00 | 85 | 1015.4 |
| 20260906023524 | 23 | 16 | 12.9 | 25.7 | 0.00 | 0.00 | 0.00 | 85 | 1015.4 |
| 20260906023031 | 23 | 335 | 12.9 | 20.9 | 0.00 | 0.00 | 0.00 | 85 | 1015.3 |
| 20260906022528 | 23 | 340 | 9.7 | 20.9 | 0.00 | 0.00 | 0.00 | 85 | 1015.1 |
| 20260906022016 | 23 | 328 | 8.0 | 20.9 | 0.00 | 0.00 | 0.00 | 84 | 1015.1 |
| 20260906021529 | 24 | 356 | 12.9 | 19.3 | 0.00 | 0.00 | 0.00 | 84 | 1015.0 |
| 20260906021016 | 24 | 14 | 12.9 | 19.3 | 0.00 | 0.00 | 0.00 | 84 | 1014.9 |
| 20260906020534 | 24 | 355 | 8.0 | 19.3 | 0.00 | 0.00 | 0.00 | 84 | 1014.9 |
| 20260906020017 | 24 | 10 | 12.9 | 22.5 | 0.00 | 0.00 | 0.00 | 84 | 1014.9 |
| 20260906015532 | 25 | 293 | 11.3 | 22.5 | 0.00 | 0.00 | 0.00 | 83 | 1014.9 |
| 20260906015020 | 25 | 4 | 8.0 | 17.7 | 0.00 | 0.00 | 0.00 | 83 | 1014.9 |
| 20260906014518 | 25 | 351 | 12.9 | 19.3 | 0.00 | 0.00 | 0.00 | 82 | 1014.8 |
| 20260906014035 | 25 | 358 | 6.4 | 19.3 | 0.00 | 0.00 | 0.00 | 82 | 1014.9 |
| 20260906013523 | 25 | 349 | 8.0 | 19.3 | 0.00 | 0.00 | 0.00 | 82 | 1014.8 |
| 20260906013040 | 25 | 6 | 11.3 | 24.1 | 0.00 | 0.00 | 0.00 | 82 | 1014.7 |
| 20260906012529 | 25 | 5 | 8.0 | 24.1 | 0.00 | 0.00 | 0.00 | 81 | 1014.6 |
| 20260906012018 | 25 | 15 | 11.3 | 27.4 | 0.00 | 0.00 | 0.00 | 81 | 1014.7 |
| 20260906011515 | 25 | 6 | 11.3 | 27.4 | 0.00 | 0.00 | 0.00 | 81 | 1014.6 |
| 20260906011033 | 26 | 346 | 12.9 | 27.4 | 0.00 | 0.00 | 0.00 | 80 | 1014.4 |
| 20260906010520 | 26 | 340 | 12.9 | 27.4 | 0.00 | 0.00 | 0.00 | 80 | 1014.3 |
| 20260906010014 | 26 | 357 | 11.3 | 22.5 | 0.00 | 0.00 | 0.00 | 80 | 1014.1 |
| 20260906005520 | 26 | 13 | 9.7 | 24.1 | 0.00 | 0.00 | 0.00 | 79 | 1014.1 |
| 20260906005018 | 26 | 9 | 16.1 | 24.1 | 0.00 | 0.00 | 0.00 | 79 | 1014.0 |
| 20260906004527 | 26 | 5 | 8.0 | 19.3 | 0.00 | 0.00 | 0.00 | 78 | 1013.9 |
| 20260906004024 | 27 | 350 | 12.9 | 22.5 | 0.00 | 0.00 | 0.00 | 78 | 1013.9 |
| 20260906003542 | 27 | 1 | 12.9 | 24.1 | 0.00 | 0.00 | 0.00 | 77 | 1014.0 |
| 20260906003029 | 27 | 12 | 16.1 | 24.1 | 0.00 | 0.00 | 0.00 | 76 | 1013.9 |
| 20260906002516 | 27 | 349 | 12.9 | 25.7 | 0.00 | 0.00 | 0.00 | 76 | 1013.9 |
| 20260906002014 | 27 | 1 | 12.9 | 25.7 | 0.00 | 0.00 | 0.00 | 76 | 1013.9 |
| 20260906001523 | 27 | 4 | 14.5 | 20.9 | 0.00 | 0.00 | 0.00 | 75 | 1013.9 |
| 20260906001019 | 28 | 2 | 6.4 | 14.5 | 0.00 | 0.00 | 0.00 | 75 | 1014.0 |
| 20260906000528 | 28 | 5 | 9.7 | 22.5 | 0.00 | 0.00 | 0.00 | 74 | 1013.9 |
| 20260906000019 | 28 | 11 | 11.3 | 22.5 | 0.00 | 0.00 | 0.00 | 74 | 1013.9 |
| 20260905235536 | 28 | 340 | 8.0 | 20.9 | 0.00 | 0.00 | 0.00 | 74 | 1013.8 |
| 20260905235023 | 28 | 17 | 9.7 | 22.5 | 0.00 | 0.00 | 0.00 | 73 | 1013.8 |
| 20260905234521 | 28 | 341 | 11.3 | 22.5 | 0.00 | 0.00 | 0.00 | 73 | 1013.7 |
| 20260905234030 | 28 | 1 | 8.0 | 29.0 | 0.00 | 0.00 | 0.00 | 72 | 1013.7 |
| 20260905233528 | 29 | 346 | 14.5 | 29.0 | 0.00 | 0.00 | 0.00 | 72 | 1013.5 |
| 20260905233015 | 29 | 26 | 14.5 | 24.1 | 0.00 | 0.00 | 0.00 | 71 | 1013.6 |
| 20260905232528 | 30 | 19 | 12.9 | 22.5 | 0.00 | 0.00 | 0.00 | 71 | 1013.6 |
| 20260905232017 | 30 | 342 | 8.0 | 17.7 | 0.00 | 0.00 | 0.00 | 71 | 1013.4 |
| 20260905231517 | 30 | 64 | 8.0 | 25.7 | 0.00 | 0.00 | 0.00 | 70 | 1013.5 |
| 20260905231024 | 30 | 10 | 17.7 | 27.4 | 0.00 | 0.00 | 0.00 | 70 | 1013.5 |
| 20260905230522 | 30 | 348 | 14.5 | 27.4 | 0.00 | 0.00 | 0.00 | 69 | 1013.4 |
| 20260905230032 | 30 | 347 | 12.9 | 32.2 | 0.00 | 0.00 | 0.00 | 70 | 1013.5 |
| 20260905225520 | 30 | 355 | 12.9 | 32.2 | 0.00 | 0.00 | 0.00 | 70 | 1013.3 |
| 20260905225037 | 30 | 1 | 14.5 | 29.0 | 0.00 | 0.00 | 0.00 | 69 | 1013.3 |
| 20260905224526 | 31 | 350 | 11.3 | 22.5 | 0.00 | 0.00 | 0.00 | 69 | 1013.1 |
| 20260905224014 | 31 | 17 | 9.7 | 19.3 | 0.00 | 0.00 | 0.00 | 69 | 1013.1 |
| 20260905223532 | 31 | 27 | 11.3 | 25.7 | 0.00 | 0.00 | 0.00 | 69 | 1013.1 |
| 20260905223029 | 31 | 339 | 11.3 | 25.7 | 0.00 | 0.00 | 0.00 | 69 | 1013.0 |
| 20260905222518 | 31 | 29 | 9.7 | 22.5 | 0.00 | 0.00 | 0.00 | 69 | 1012.8 |
| 20260905222033 | 31 | 11 | 9.7 | 22.5 | 0.00 | 0.00 | 0.00 | 69 | 1012.6 |
| 20260905221521 | 31 | 301 | 11.3 | 29.0 | 0.00 | 0.00 | 0.00 | 69 | 1012.6 |
| 20260905221038 | 31 | 5 | 12.9 | 29.0 | 0.00 | 0.00 | 0.00 | 69 | 1012.5 |
| 20260905220527 | 32 | 5 | 14.5 | 25.7 | 0.00 | 0.00 | 0.00 | 69 | 1012.5 |
| 20260905220018 | 32 | 347 | 11.3 | 22.5 | 0.00 | 0.00 | 0.00 | 69 | 1012.4 |
| 20260905215525 | 32 | 35 | 6.4 | 22.5 | 0.00 | 0.00 | 0.00 | 69 | 1012.5 |
| 20260905215023 | 32 | 335 | 9.7 | 24.1 | 0.00 | 0.00 | 0.00 | 70 | 1012.6 |
| 20260905214540 | 32 | 12 | 9.7 | 24.1 | 0.00 | 0.00 | 0.00 | 69 | 1012.5 |
| 20260905214028 | 32 | 4 | 11.3 | 22.5 | 0.00 | 0.00 | 0.00 | 69 | 1012.5 |
| 20260905213516 | 32 | 349 | 14.5 | 22.5 | 0.00 | 0.00 | 0.00 | 69 | 1012.4 |
| 20260905213014 | 32 | 7 | 6.4 | 24.1 | 0.00 | 0.00 | 0.00 | 69 | 1012.4 |
| 20260905212523 | 33 | 359 | 11.3 | 24.1 | 0.00 | 0.00 | 0.00 | 68 | 1012.2 |
| 20260905212021 | 33 | 340 | 11.3 | 20.9 | 0.00 | 0.00 | 0.00 | 68 | 1012.2 |
| 20260905211538 | 33 | 337 | 8.0 | 22.5 | 0.00 | 0.00 | 0.00 | 68 | 1012.1 |
| 20260905211027 | 33 | 309 | 8.0 | 22.5 | 0.00 | 0.00 | 0.00 | 67 | 1012.0 |
| 20260905210514 | 33 | 32 | 9.7 | 22.5 | 0.00 | 0.00 | 0.00 | 67 | 1012.0 |
| 20260905210026 | 33 | 341 | 11.3 | 24.1 | 0.00 | 0.00 | 0.00 | 67 | 1012.1 |
| 20260905205523 | 34 | 4 | 11.3 | 24.1 | 0.00 | 0.00 | 0.00 | 65 | 1012.1 |
| 20260905205031 | 34 | 344 | 12.9 | 22.5 | 0.00 | 0.00 | 0.00 | 65 | 1012.2 |
| 20260905204529 | 34 | 234 | 9.7 | 16.1 | 0.00 | 0.00 | 0.00 | 65 | 1012.1 |
| 20260905204018 | 34 | 274 | 4.8 | 17.7 | 0.00 | 0.00 | 0.00 | 65 | 1012.2 |
| 20260905203516 | 34 | 264 | 6.4 | 17.7 | 0.00 | 0.00 | 0.00 | 65 | 1012.3 |
| 20260905203019 | 34 | 264 | 8.0 | 16.1 | 0.00 | 0.00 | 0.00 | 64 | 1012.2 |
| 20260905202516 | 34 | 300 | 4.8 | 14.5 | 0.00 | 0.00 | 0.00 | 64 | 1012.3 |
| 20260905202025 | 34 | 313 | 6.4 | 19.3 | 0.00 | 0.00 | 0.00 | 63 | 1012.3 |
| 20260905201523 | 34 | 315 | 6.4 | 19.3 | 0.00 | 0.00 | 0.00 | 65 | 1012.2 |
| 20260905201031 | 33 | 324 | 4.8 | 12.9 | 0.00 | 0.00 | 0.00 | 66 | 1012.2 |
| 20260905200528 | 33 | 332 | 3.2 | 12.9 | 0.00 | 0.00 | 0.00 | 67 | 1012.3 |
| 20260905200039 | 33 | 313 | 4.8 | 11.3 | 0.00 | 0.00 | 0.00 | 66 | 1012.3 |
| 20260905195527 | 33 | 3 | 6.4 | 17.7 | 0.00 | 0.00 | 0.00 | 66 | 1012.3 |
| 20260905195025 | 33 | 343 | 9.7 | 17.7 | 0.00 | 0.00 | 0.00 | 64 | 1012.3 |
| 20260905194514 | 33 | 233 | 4.8 | 12.9 | 0.00 | 0.00 | 0.00 | 66 | 1012.4 |
| 20260905194031 | 34 | 238 | 4.8 | 12.9 | 0.00 | 0.00 | 0.00 | 66 | 1012.4 |
| 20260905193520 | 34 | 310 | 4.8 | 16.1 | 0.00 | 0.00 | 0.00 | 66 | 1012.7 |
| 20260905193037 | 33 | 193 | 6.4 | 14.5 | 0.00 | 0.00 | 0.00 | 67 | 1012.7 |
| 20260905192525 | 33 | 225 | 6.4 | 14.5 | 0.00 | 0.00 | 0.00 | 68 | 1012.9 |
| 20260905192042 | 33 | 259 | 4.8 | 14.5 | 0.00 | 0.00 | 0.00 | 68 | 1013.0 |
| 20260905191530 | 33 | 315 | 4.8 | 16.1 | 0.00 | 0.00 | 0.00 | 67 | 1013.0 |
| 20260905191027 | 33 | 324 | 6.4 | 14.5 | 0.00 | 0.00 | 0.00 | 66 | 1012.9 |
| 20260905190516 | 33 | 328 | 8.0 | 14.5 | 0.00 | 0.00 | 0.00 | 67 | 1012.8 |
| 20260905190028 | 33 | 195 | 6.4 | 12.9 | 0.00 | 0.00 | 0.00 | 67 | 1012.9 |
| 20260905185517 | 33 | 309 | 4.8 | 12.9 | 0.00 | 0.00 | 0.00 | 65 | 1013.1 |
| 20260905185014 | 33 | 315 | 1.6 | 12.9 | 0.00 | 0.00 | 0.00 | 66 | 1013.1 |
| 20260905184522 | 33 | 322 | 4.8 | 12.9 | 0.00 | 0.00 | 0.00 | 65 | 1013.1 |
| 20260905184019 | 33 | 278 | 4.8 | 11.3 | 0.00 | 0.00 | 0.00 | 67 | 1013.2 |
| 20260905183537 | 33 | 347 | 1.6 | 8.0 | 0.00 | 0.00 | 0.00 | 66 | 1013.2 |
| 20260905183026 | 33 | 122 | 3.2 | 9.7 | 0.00 | 0.00 | 0.00 | 66 | 1013.4 |
| 20260905182515 | 33 | 307 | 4.8 | 8.0 | 0.00 | 0.00 | 0.00 | 66 | 1013.5 |
| 20260905182032 | 33 | 213 | 4.8 | 8.0 | 0.00 | 0.00 | 0.00 | 66 | 1013.6 |
| 20260905181520 | 33 | 256 | 4.8 | 8.0 | 0.00 | 0.00 | 0.00 | 66 | 1013.8 |
| 20260905181016 | 33 | 197 | 4.8 | 12.9 | 0.00 | 0.00 | 0.00 | 67 | 1014.0 |
| 20260905180524 | 33 | 192 | 4.8 | 12.9 | 0.00 | 0.00 | 0.00 | 67 | 1014.0 |
| 20260905180015 | 33 | 141 | 4.8 | 14.5 | 0.00 | 0.00 | 0.00 | 66 | 1014.1 |
| 20260905175533 | 33 | 217 | 6.4 | 14.5 | 0.00 | 0.00 | 0.00 | 65 | 1014.1 |
| 20260905175021 | 33 | 264 | 3.2 | 14.5 | 0.00 | 0.00 | 0.00 | 64 | 1014.2 |
| 20260905174519 | 33 | 205 | 6.4 | 14.5 | 0.00 | 0.00 | 0.00 | 66 | 1014.3 |
| 20260905174023 | 33 | 210 | 3.2 | 11.3 | 0.00 | 0.00 | 0.00 | 65 | 1014.2 |
| 20260905173520 | 33 | 202 | 3.2 | 8.0 | 0.00 | 0.00 | 0.00 | 66 | 1014.2 |
| 20260905173029 | 33 | 182 | 3.2 | 14.5 | 0.00 | 0.00 | 0.00 | 67 | 1014.4 |
| 20260905172526 | 32 | 198 | 8.0 | 14.5 | 0.00 | 0.00 | 0.00 | 66 | 1014.6 |
| 20260905172014 | 32 | 201 | 3.2 | 11.3 | 0.00 | 0.00 | 0.00 | 66 | 1014.5 |
| 20260905171531 | 32 | 212 | 4.8 | 14.5 | 0.00 | 0.00 | 0.00 | 66 | 1014.6 |
| 20260905171019 | 32 | 211 | 6.4 | 12.9 | 0.00 | 0.00 | 0.00 | 68 | 1014.6 |
| 20260905170516 | 32 | 114 | 4.8 | 11.3 | 0.00 | 0.00 | 0.00 | 67 | 1014.7 |
| 20260905170017 | 32 | 197 | 4.8 | 11.3 | 0.00 | 0.00 | 0.00 | 66 | 1014.7 |
| 20260905165516 | 32 | 193 | 4.8 | 9.7 | 0.00 | 0.00 | 0.00 | 67 | 1014.8 |
| 20260905165033 | 32 | 212 | 6.4 | 11.3 | 0.00 | 0.00 | 0.00 | 67 | 1014.8 |
| 20260905164520 | 32 | 231 | 4.8 | 11.3 | 0.00 | 0.00 | 0.00 | 68 | 1015.0 |
| 20260905164037 | 31 | 132 | 3.2 | 11.3 | 0.00 | 0.00 | 0.00 | 68 | 1014.9 |
| 20260905163526 | 31 | 240 | 6.4 | 12.9 | 0.00 | 0.00 | 0.00 | 67 | 1014.9 |
| 20260905163014 | 31 | 252 | 4.8 | 12.9 | 0.00 | 0.00 | 0.00 | 68 | 1014.8 |
| 20260905162531 | 31 | 239 | 6.4 | 12.9 | 0.00 | 0.00 | 0.00 | 69 | 1014.9 |
| 20260905162029 | 31 | 199 | 3.2 | 12.9 | 0.00 | 0.00 | 0.00 | 68 | 1014.9 |
| 20260905161518 | 31 | 295 | 3.2 | 12.9 | 0.00 | 0.00 | 0.00 | 67 | 1014.9 |
| 20260905161036 | 31 | 124 | 4.8 | 17.7 | 0.00 | 0.00 | 0.00 | 68 | 1014.9 |
| 20260905160524 | 30 | 175 | 3.2 | 14.5 | 0.00 | 0.00 | 0.00 | 69 | 1014.7 |
| 20260905160015 | 30 | 205 | 8.0 | 16.1 | 0.00 | 0.00 | 0.00 | 69 | 1014.7 |
| 20260905155524 | 30 | 252 | 4.8 | 16.1 | 0.00 | 0.00 | 0.00 | 69 | 1014.8 |
| 20260905155022 | 30 | 248 | 4.8 | 14.5 | 0.00 | 0.00 | 0.00 | 71 | 1014.9 |
| 20260905154540 | 30 | 188 | 6.4 | 14.5 | 0.00 | 0.00 | 0.00 | 70 | 1014.8 |
| 20260905154028 | 30 | 216 | 4.8 | 14.5 | 0.00 | 0.00 | 0.00 | 69 | 1014.9 |
| 20260905153516 | 30 | 150 | 4.8 | 12.9 | 0.00 | 0.00 | 0.00 | 71 | 1015.0 |
| 20260905153032 | 30 | 240 | 3.2 | 14.5 | 0.00 | 0.00 | 0.00 | 69 | 1015.0 |
| 20260905152520 | 30 | 137 | 3.2 | 14.5 | 0.00 | 0.00 | 0.00 | 70 | 1014.7 |
| 20260905152017 | 30 | 109 | 3.2 | 14.5 | 0.00 | 0.00 | 0.00 | 71 | 1014.7 |
| 20260905151526 | 29 | 175 | 3.2 | 12.9 | 0.00 | 0.00 | 0.00 | 72 | 1014.7 |
| 20260905151024 | 29 | 182 | 1.6 | 16.1 | 0.00 | 0.00 | 0.00 | 72 | 1014.9 |
| 20260905150541 | 28 | 180 | 3.2 | 19.3 | 0.00 | 0.00 | 0.00 | 72 | 1015.0 |
| 20260905150023 | 28 | 143 | 4.8 | 14.5 | 0.00 | 0.00 | 0.00 | 72 | 1014.9 |
| 20260905145519 | 28 | 204 | 6.4 | 14.5 | 0.00 | 0.00 | 0.00 | 72 | 1015.0 |
| 20260905145022 | 28 | 201 | 3.2 | 12.9 | 0.00 | 0.00 | 0.00 | 74 | 1015.1 |
| 20260905144519 | 28 | 182 | 4.8 | 17.7 | 0.00 | 0.00 | 0.00 | 73 | 1015.2 |
| 20260905144028 | 28 | 95 | 6.4 | 19.3 | 0.00 | 0.00 | 0.00 | 74 | 1015.3 |
| 20260905143526 | 28 | 178 | 8.0 | 19.3 | 0.00 | 0.00 | 0.00 | 74 | 1015.2 |
| 20260905143015 | 28 | 199 | 3.2 | 16.1 | 0.00 | 0.00 | 0.00 | 77 | 1015.1 |
| 20260905142532 | 27 | 163 | 4.8 | 16.1 | 0.00 | 0.00 | 0.00 | 76 | 1015.1 |
| 20260905142019 | 27 | 230 | 1.6 | 14.5 | 0.00 | 0.00 | 0.00 | 76 | 1015.0 |
| 20260905141517 | 27 | 192 | 4.8 | 17.7 | 0.00 | 0.00 | 0.00 | 77 | 1014.7 |
| 20260905141026 | 27 | 128 | 6.4 | 17.7 | 0.00 | 0.00 | 0.00 | 76 | 1014.7 |
| 20260905140523 | 27 | 171 | 3.2 | 14.5 | 0.00 | 0.00 | 0.00 | 78 | 1014.7 |
| 20260905140034 | 27 | 157 | 1.6 | 6.4 | 0.00 | 0.00 | 0.00 | 81 | 1014.6 |
| 20260905135522 | 27 | 163 | 0.0 | 6.4 | 0.00 | 0.00 | 0.00 | 82 | 1014.6 |
| 20260905135039 | 26 | 170 | 1.6 | 8.0 | 0.00 | 0.00 | 0.00 | 81 | 1014.5 |
| 20260905134528 | 26 | 118 | 3.2 | 12.9 | 0.00 | 0.00 | 0.00 | 82 | 1014.5 |
| 20260905134016 | 26 | 150 | 3.2 | 12.9 | 0.00 | 0.00 | 0.00 | 81 | 1014.6 |
| 20260905133533 | 26 | 161 | 3.2 | 11.3 | 0.00 | 0.00 | 0.00 | 82 | 1014.7 |
| 20260905133030 | 26 | 80 | 1.6 | 12.9 | 0.00 | 0.00 | 0.00 | 82 | 1014.7 |
| 20260905132517 | 26 | 156 | 3.2 | 11.3 | 0.00 | 0.00 | 0.00 | 83 | 1014.7 |
| 20260905132034 | 26 | 120 | 1.6 | 11.3 | 0.00 | 0.00 | 0.00 | 83 | 1014.6 |
| 20260905131522 | 26 | 89 | 3.2 | 11.3 | 0.00 | 0.00 | 0.00 | 83 | 1014.7 |
| 20260905131039 | 26 | 154 | 3.2 | 11.3 | 0.00 | 0.00 | 0.00 | 84 | 1014.9 |
| 20260905130527 | 26 | 149 | 3.2 | 11.3 | 0.00 | 0.00 | 0.00 | 84 | 1014.7 |
| 20260905130018 | 25 | 180 | 1.6 | 12.9 | 0.00 | 0.00 | 0.00 | 85 | 1014.9 |
| 20260905125536 | 25 | 145 | 1.6 | 12.9 | 0.00 | 0.00 | 0.00 | 84 | 1014.7 |
| 20260905125021 | 25 | 107 | 3.2 | 9.7 | 0.00 | 0.00 | 0.00 | 85 | 1014.8 |
| 20260905124537 | 25 | 124 | 3.2 | 11.3 | 0.00 | 0.00 | 0.00 | 85 | 1014.9 |
| 20260905124026 | 25 | 93 | 3.2 | 11.3 | 0.00 | 0.00 | 0.00 | 86 | 1014.8 |
| 20260905123514 | 26 | 132 | 1.6 | 9.7 | 0.00 | 0.00 | 0.00 | 89 | 1014.8 |
| 20260905123032 | 25 | 132 | 3.2 | 9.7 | 0.00 | 0.00 | 0.00 | 89 | 1014.7 |
| 20260905122519 | 25 | 89 | 1.6 | 4.8 | 0.00 | 0.00 | 0.00 | 90 | 1014.6 |
| 20260905122016 | 25 | 82 | 3.2 | 8.0 | 0.00 | 0.00 | 0.00 | 91 | 1014.5 |
| 20260905121534 | 25 | 107 | 0.0 | 12.9 | 0.00 | 0.00 | 0.00 | 92 | 1014.5 |
| 20260905121021 | 25 | 111 | 4.8 | 12.9 | 0.00 | 0.00 | 0.00 | 93 | 1014.5 |
| 20260905120534 | 24 | 206 | 0.0 | 1.6 | 0.00 | 0.00 | 0.00 | 93 | 1014.2 |
| 20260905120017 | 24 | 211 | 0.0 | 0.0 | 0.00 | 0.00 | 0.00 | 93 | 1014.1 |
| 20260905115514 | 24 | 212 | 0.0 | 0.0 | 0.00 | 0.00 | 0.00 | 93 | 1014.0 |
| 20260905115022 | 24 | 212 | 0.0 | 0.0 | 0.00 | 0.00 | 0.00 | 93 | 1014.1 |
| 20260905114518 | 24 | 212 | 0.0 | 0.0 | 0.00 | 0.00 | 0.00 | 93 | 1014.0 |
| 20260905114026 | 24 | 212 | 0.0 | 0.0 | 0.00 | 0.00 | 0.00 | 93 | 1014.0 |
| 20260905113521 | 24 | 211 | 0.0 | 0.0 | 0.00 | 0.00 | 0.00 | 93 | 1014.0 |
| 20260905113040 | 24 | 213 | 0.0 | 0.0 | 0.00 | 0.00 | 0.00 | 93 | 1014.2 |
| 20260905112527 | 24 | 211 | 0.0 | 0.0 | 0.00 | 0.00 | 0.00 | 93 | 1014.0 |
| 20260905112014 | 24 | 213 | 0.0 | 0.0 | 0.00 | 0.00 | 0.00 | 93 | 1013.9 |
| 20260905111531 | 24 | 211 | 0.0 | 0.0 | 0.00 | 0.00 | 0.00 | 93 | 1013.9 |
| 20260905111019 | 24 | 212 | 0.0 | 0.0 | 0.00 | 0.00 | 0.00 | 93 | 1013.8 |
| 20260905110516 | 24 | 211 | 0.0 | 0.0 | 0.00 | 0.00 | 0.00 | 93 | 1013.7 |
| 20260905110026 | 24 | 212 | 0.0 | 0.0 | 0.00 | 0.00 | 0.00 | 93 | 1013.7 |
| 20260905105514 | 24 | 211 | 0.0 | 0.0 | 0.00 | 0.00 | 0.00 | 93 | 1013.7 |
| 20260905105031 | 24 | 212 | 0.0 | 1.6 | 0.00 | 0.00 | 0.00 | 92 | 1013.7 |
| 20260905104520 | 24 | 212 | 0.0 | 1.6 | 0.00 | 0.00 | 0.00 | 92 | 1013.6 |
| 20260905104017 | 24 | 212 | 0.0 | 1.6 | 0.00 | 0.00 | 0.00 | 92 | 1013.8 |
| 20260905103525 | 24 | 212 | 0.0 | 0.0 | 0.00 | 0.00 | 0.00 | 92 | 1013.7 |
| 20260905103021 | 24 | 213 | 0.0 | 1.6 | 0.00 | 0.00 | 0.00 | 92 | 1013.7 |
| 20260905102529 | 24 | 212 | 0.0 | 1.6 | 0.00 | 0.00 | 0.00 | 92 | 1013.6 |
| 20260905102026 | 24 | 211 | 0.0 | 1.6 | 0.00 | 0.00 | 0.00 | 92 | 1013.6 |
| 20260905101515 | 24 | 212 | 0.0 | 1.6 | 0.00 | 0.00 | 0.00 | 91 | 1013.7 |
| 20260905101031 | 24 | 211 | 0.0 | 1.6 | 0.00 | 0.00 | 0.00 | 91 | 1013.7 |
| 20260905100520 | 24 | 212 | 0.0 | 1.6 | 0.00 | 0.00 | 0.00 | 91 | 1013.7 |
| 20260905100032 | 24 | 212 | 0.0 | 1.6 | 0.00 | 0.00 | 0.00 | 91 | 1013.9 |
| 20260905095529 | 24 | 211 | 0.0 | 0.0 | 0.00 | 0.00 | 0.00 | 91 | 1013.9 |
| 20260905095017 | 25 | 212 | 0.0 | 1.6 | 0.00 | 0.00 | 0.00 | 91 | 1013.9 |
| 20260905094533 | 25 | 213 | 0.0 | 1.6 | 0.00 | 0.00 | 0.00 | 91 | 1014.0 |
| 20260905094021 | 25 | 212 | 0.0 | 0.0 | 0.00 | 0.00 | 0.00 | 91 | 1014.0 |
| 20260905093538 | 25 | 212 | 0.0 | 0.0 | 0.00 | 0.00 | 0.00 | 91 | 1014.0 |
| 20260905093026 | 25 | 211 | 0.0 | 0.0 | 0.00 | 0.00 | 0.00 | 91 | 1014.0 |
| 20260905092523 | 25 | 213 | 0.0 | 0.0 | 0.00 | 0.00 | 0.00 | 91 | 1014.0 |
| 20260905092027 | 25 | 212 | 0.0 | 0.0 | 0.00 | 0.00 | 0.00 | 90 | 1013.9 |
| 20260905091525 | 25 | 213 | 0.0 | 0.0 | 0.00 | 0.00 | 0.00 | 90 | 1013.8 |
| 20260905091014 | 25 | 213 | 0.0 | 0.0 | 0.00 | 0.00 | 0.00 | 90 | 1013.7 |
| 20260905090531 | 25 | 213 | 0.0 | 0.0 | 0.00 | 0.00 | 0.00 | 90 | 1013.8 |